Time;durP1;ratioP1;P1;durP2;ratioP2;P2;SDS_P1;SDS_P2;PMS_P1;PMS_P2;Temp;Humidity;BMP_temperature;BMP_pressure;BME280_temperature;BME280_humidity;BME280_pressure;Samples;Min_cycle;Max_cycle;Signal;HPM_P1;HPM_P2
2023/07/30 00:01:59;;;;;;;4.75;1.20;;;16.10;99.90;;;;;;5134002;27;20117;-85
2023/07/30 00:04:25;;;;;;;5.82;1.40;;;16.20;99.90;;;;;;5134218;27;20055;-85
2023/07/30 00:06:50;;;;;;;4.47;1.50;;;16.20;99.90;;;;;;5134293;27;20039;-85
2023/07/30 00:09:16;;;;;;;9.95;4.60;;;16.20;99.90;;;;;;5115750;27;20039;-85
2023/07/30 00:11:42;;;;;;;7.28;1.23;;;16.20;99.90;;;;;;5098400;27;20062;-85
2023/07/30 00:14:08;;;;;;;14.18;2.53;;;16.20;99.90;;;;;;5112193;28;20126;-85
2023/07/30 00:16:33;;;;;;;6.55;2.28;;;16.20;99.90;;;;;;5112423;28;20136;-85
2023/07/30 00:18:59;;;;;;;5.93;2.00;;;16.10;99.90;;;;;;5112719;28;20039;-85
2023/07/30 00:21:25;;;;;;;223.32;194.70;;;16.20;99.90;;;;;;5112744;28;20043;-85
2023/07/30 00:23:51;;;;;;;39.25;28.85;;;16.20;99.90;;;;;;5128551;27;20093;-85
2023/07/30 00:26:16;;;;;;;5.22;1.48;;;16.10;99.90;;;;;;5115758;27;20387;-85
2023/07/30 00:28:42;;;;;;;3.28;1.30;;;16.10;99.90;;;;;;5112060;28;20054;-85
2023/07/30 00:31:07;;;;;;;7.93;1.42;;;16.10;99.90;;;;;;5112677;28;20053;-85
2023/07/30 00:33:33;;;;;;;9.52;2.17;;;16.10;99.90;;;;;;5122772;27;20042;-85
2023/07/30 00:35:59;;;;;;;7.50;1.73;;;16.10;99.90;;;;;;5112095;28;20477;-85
2023/07/30 00:38:25;;;;;;;5.93;1.60;;;16.10;99.90;;;;;;5117046;28;20035;-85
2023/07/30 00:40:50;;;;;;;8.05;2.15;;;16.10;99.90;;;;;;5115873;27;20047;-85
2023/07/30 00:43:16;;;;;;;13.40;9.05;;;16.10;99.90;;;;;;5098574;28;20100;-85
2023/07/30 00:45:44;;;;;;;8.27;6.80;;;16.10;99.90;;;;;;5111382;28;20044;-85
2023/07/30 00:48:11;;;;;;;10.75;3.13;;;16.10;99.90;;;;;;5112145;28;20052;-85
2023/07/30 00:50:38;;;;;;;11.57;8.45;;;16.10;99.90;;;;;;5095026;28;20047;-85
2023/07/30 00:53:04;;;;;;;7.72;1.48;;;16.10;99.90;;;;;;5095553;28;20046;-85
2023/07/30 00:55:30;;;;;;;10.00;2.10;;;16.10;99.90;;;;;;5096274;28;20466;-85
2023/07/30 00:57:57;;;;;;;9.43;6.18;;;16.00;99.90;;;;;;5115153;28;20049;-85
2023/07/30 01:00:24;;;;;;;8.23;3.92;;;16.00;99.90;;;;;;5133974;28;20043;-85
2023/07/30 01:02:51;;;;;;;8.38;3.45;;;16.00;99.90;;;;;;5133821;28;20453;-85
2023/07/30 01:05:17;;;;;;;43.17;39.58;;;16.00;99.90;;;;;;5115129;28;20072;-85
2023/07/30 01:07:43;;;;;;;8.23;2.63;;;16.00;99.90;;;;;;5115043;28;20036;-85
2023/07/30 01:10:09;;;;;;;5.07;1.33;;;16.00;99.90;;;;;;5117065;27;20065;-84
2023/07/30 01:12:36;;;;;;;4.65;1.30;;;16.00;99.90;;;;;;5102237;27;20039;-85
2023/07/30 01:15:04;;;;;;;10.25;1.70;;;16.00;99.90;;;;;;5119289;27;20047;-84
2023/07/30 01:17:30;;;;;;;9.32;1.90;;;16.00;99.90;;;;;;5101594;27;20074;-84
2023/07/30 01:19:55;;;;;;;5.35;2.05;;;16.00;99.90;;;;;;5118435;27;20043;-85
2023/07/30 01:22:22;;;;;;;7.82;1.70;;;16.00;99.90;;;;;;5102525;27;20149;-85
2023/07/30 01:24:48;;;;;;;14.25;2.17;;;16.00;99.90;;;;;;5119606;27;20046;-85
2023/07/30 01:27:24;;;;;;;22.00;19.60;;;16.00;99.90;;;;;;5102192;27;20106;-85
2023/07/30 01:30:26;;;;;;;65.63;60.67;;;16.00;99.90;;;;;;5137720;27;20049;-85
2023/07/30 01:32:53;;;;;;;151.20;142.90;;;16.10;99.90;;;;;;5057593;28;20055;-85
2023/07/30 01:35:24;;;;;;;13.55;9.80;;;16.10;99.90;;;;;;5073706;28;20119;-85
2023/07/30 01:37:51;;;;;;;626.22;580.83;;;16.10;99.90;;;;;;5057378;28;20044;-85
2023/07/30 01:40:17;;;;;;;91.40;85.10;;;16.10;99.90;;;;;;5057702;28;20052;-85
2023/07/30 01:42:43;;;;;;;592.22;526.05;;;16.10;99.90;;;;;;5057966;28;20053;-85
2023/07/30 01:45:09;;;;;;;614.35;523.00;;;16.10;99.90;;;;;;5057664;28;20056;-85
2023/07/30 01:47:34;;;;;;;10.57;2.63;;;16.10;99.90;;;;;;5074015;28;20120;-85
2023/07/30 01:50:00;;;;;;;7.30;1.90;;;16.10;99.90;;;;;;5073327;28;20527;-85
2023/07/30 01:52:26;;;;;;;11.93;3.05;;;16.00;99.90;;;;;;5056873;28;20136;-85
2023/07/30 01:54:52;;;;;;;11.73;2.28;;;16.10;99.90;;;;;;5057284;28;20093;-85
2023/07/30 01:57:18;;;;;;;10.30;3.05;;;16.10;99.90;;;;;;5073090;28;20087;-85
2023/07/30 01:59:43;;;;;;;12.13;8.73;;;16.00;99.90;;;;;;5073610;28;20045;-85
2023/07/30 02:02:09;;;;;;;11.20;1.88;;;16.00;99.90;;;;;;5073510;28;20128;-85
2023/07/30 02:04:35;;;;;;;8.65;2.05;;;16.00;99.90;;;;;;5056467;28;20059;-85
2023/07/30 02:07:00;;;;;;;5.30;1.88;;;16.10;99.90;;;;;;5056201;28;20102;-85
2023/07/30 02:09:26;;;;;;;3.90;1.30;;;16.20;99.90;;;;;;5113046;27;20115;-85
2023/07/30 02:11:52;;;;;;;3.88;1.25;;;16.10;99.90;;;;;;5118542;27;20066;-84
2023/07/30 02:14:18;;;;;;;6.95;1.75;;;16.10;99.90;;;;;;5136485;27;20043;-84
2023/07/30 02:16:44;;;;;;;10.02;2.03;;;16.10;99.90;;;;;;5117977;27;20039;-84
2023/07/30 02:19:10;;;;;;;9.57;2.10;;;16.10;99.90;;;;;;5117618;27;20119;-84
2023/07/30 02:21:37;;;;;;;5.88;1.80;;;16.10;99.90;;;;;;5100497;27;20050;-83
2023/07/30 02:24:02;;;;;;;6.88;1.60;;;16.10;99.90;;;;;;5097841;28;20050;-84
2023/07/30 02:26:28;;;;;;;5.18;1.27;;;16.20;99.90;;;;;;5097503;28;20043;-84
2023/07/30 02:28:54;;;;;;;4.32;1.08;;;16.30;99.90;;;;;;5115628;28;20047;-85
2023/07/30 02:31:20;;;;;;;5.75;1.42;;;16.20;99.90;;;;;;5097499;28;20047;-85
2023/07/30 02:33:45;;;;;;;8.43;1.33;;;16.20;99.90;;;;;;5097155;28;20050;-85
2023/07/30 02:36:11;;;;;;;8.77;1.77;;;16.20;99.90;;;;;;5097613;28;20047;-84
2023/07/30 02:38:37;;;;;;;10.00;1.98;;;16.20;99.90;;;;;;5116693;27;20565;-85
2023/07/30 02:41:02;;;;;;;5.60;1.60;;;16.30;99.90;;;;;;5117581;27;20039;-84
2023/07/30 02:43:28;;;;;;;29.20;26.85;;;16.30;99.90;;;;;;5100886;27;20051;-84
2023/07/30 02:45:54;;;;;;;9.63;1.38;;;16.30;99.90;;;;;;5117546;27;20047;-84
2023/07/30 02:48:19;;;;;;;8.27;2.03;;;16.30;99.90;;;;;;5117325;27;20050;-84
2023/07/30 02:50:45;;;;;;;12.85;1.90;;;16.50;99.90;;;;;;5135696;27;20088;-85
2023/07/30 02:53:11;;;;;;;6.78;2.15;;;16.30;99.90;;;;;;5100072;27;20047;-84
2023/07/30 02:55:36;;;;;;;9.50;1.50;;;16.30;99.90;;;;;;5117304;27;20399;-84
2023/07/30 02:58:02;;;;;;;9.52;2.00;;;16.30;99.90;;;;;;5100215;27;20047;-84
2023/07/30 03:00:28;;;;;;;9.88;2.40;;;16.30;99.90;;;;;;5116950;27;20074;-84
2023/07/30 03:02:53;;;;;;;5.22;1.92;;;16.30;99.90;;;;;;5135200;27;20168;-85
2023/07/30 03:05:19;;;;;;;8.73;1.63;;;16.30;99.90;;;;;;5114885;28;20435;-84
2023/07/30 03:07:45;;;;;;;7.78;1.50;;;16.20;99.90;;;;;;5117436;27;20039;-85
2023/07/30 03:10:11;;;;;;;7.50;1.77;;;16.20;99.90;;;;;;5135424;27;20038;-85
2023/07/30 03:12:36;;;;;;;5.55;1.50;;;16.20;99.90;;;;;;5117078;27;20051;-85
2023/07/30 03:15:02;;;;;;;3.08;1.40;;;16.20;99.90;;;;;;5135400;27;20396;-85
2023/07/30 03:17:28;;;;;;;11.43;1.95;;;16.20;99.90;;;;;;5117192;27;20035;-84
2023/07/30 03:19:53;;;;;;;6.28;1.50;;;16.20;99.90;;;;;;5116939;27;20043;-85
2023/07/30 03:22:19;;;;;;;6.47;1.17;;;16.10;99.90;;;;;;5116161;27;20050;-85
2023/07/30 03:24:47;;;;;;;4.57;1.70;;;16.10;99.90;;;;;;5116494;27;20073;-85
2023/07/30 03:27:13;;;;;;;9.32;1.65;;;16.10;99.90;;;;;;5117019;27;20083;-85
2023/07/30 03:29:39;;;;;;;9.00;1.83;;;16.10;99.90;;;;;;5116273;27;20426;-85
2023/07/30 03:32:05;;;;;;;8.15;1.77;;;16.10;99.90;;;;;;5115533;27;20043;-85
2023/07/30 03:34:30;;;;;;;11.10;1.58;;;16.10;99.90;;;;;;5116276;27;20407;-85
2023/07/30 03:36:56;;;;;;;10.75;1.70;;;16.10;99.90;;;;;;5116453;27;20047;-85
2023/07/30 03:39:22;;;;;;;14.10;1.55;;;16.00;99.90;;;;;;5099308;27;20047;-85
2023/07/30 03:41:48;;;;;;;9.38;1.63;;;16.00;99.90;;;;;;5134817;27;20046;-85
2023/07/30 03:44:13;;;;;;;4.95;1.30;;;16.00;99.90;;;;;;5115926;27;20385;-85
2023/07/30 03:46:39;;;;;;;9.75;1.40;;;16.00;99.90;;;;;;5134883;27;20088;-85
2023/07/30 03:49:05;;;;;;;7.00;1.38;;;15.90;99.90;;;;;;5115816;27;20568;-85
2023/07/30 03:51:32;;;;;;;5.43;0.95;;;16.00;99.90;;;;;;5099087;27;20047;-85
2023/07/30 03:53:57;;;;;;;10.50;1.38;;;15.90;99.90;;;;;;5098968;27;20043;-85
2023/07/30 03:56:23;;;;;;;8.18;1.48;;;15.90;99.90;;;;;;5116154;27;20039;-85
2023/07/30 03:58:49;;;;;;;12.40;2.10;;;15.90;99.90;;;;;;5116110;27;20046;-84
2023/07/30 04:01:14;;;;;;;12.10;2.00;;;15.90;99.90;;;;;;5134010;27;20070;-85
2023/07/30 04:03:40;;;;;;;14.85;2.13;;;15.90;99.90;;;;;;5134340;27;20051;-85
2023/07/30 04:06:06;;;;;;;10.07;1.85;;;15.80;99.90;;;;;;5134390;27;20065;-85
2023/07/30 04:08:31;;;;;;;5.63;1.23;;;15.80;99.90;;;;;;5115617;27;20035;-85
2023/07/30 04:10:57;;;;;;;6.20;1.05;;;15.80;99.90;;;;;;5116145;27;20118;-84
2023/07/30 04:13:23;;;;;;;9.65;1.85;;;15.80;99.90;;;;;;5134435;27;20122;-84
2023/07/30 04:15:48;;;;;;;4.68;1.00;;;15.80;99.90;;;;;;5134266;27;20075;-84
2023/07/30 04:18:14;;;;;;;11.75;1.60;;;15.80;99.90;;;;;;5115678;27;20046;-85
2023/07/30 04:20:40;;;;;;;7.35;1.70;;;15.80;99.90;;;;;;5114084;27;20084;-84
2023/07/30 04:23:06;;;;;;;5.97;1.20;;;15.90;99.90;;;;;;5133998;27;20616;-85
2023/07/30 04:25:31;;;;;;;8.98;2.10;;;15.80;99.90;;;;;;5134242;27;20035;-85
2023/07/30 04:27:57;;;;;;;9.20;1.65;;;15.90;99.90;;;;;;5115061;27;20060;-85
2023/07/30 04:30:23;;;;;;;10.70;1.58;;;15.90;99.90;;;;;;5115864;27;20429;-85
2023/07/30 04:32:49;;;;;;;6.30;1.20;;;15.90;99.90;;;;;;5133677;27;20046;-86
2023/07/30 04:35:14;;;;;;;4.85;1.30;;;15.90;99.90;;;;;;5115586;27;20052;-85
2023/07/30 04:37:40;;;;;;;7.72;1.33;;;15.90;99.90;;;;;;5115553;27;20516;-85
2023/07/30 04:40:07;;;;;;;7.45;1.23;;;15.90;99.90;;;;;;5134146;27;20034;-85
2023/07/30 04:42:32;;;;;;;8.90;1.30;;;15.90;99.90;;;;;;5133781;27;20383;-85
2023/07/30 04:44:58;;;;;;;4.70;1.02;;;15.90;99.90;;;;;;5115031;27;20047;-85
2023/07/30 04:47:23;;;;;;;8.27;1.88;;;15.90;99.90;;;;;;5115522;28;20050;-85
2023/07/30 04:49:49;;;;;;;6.88;1.33;;;16.00;99.90;;;;;;5114990;28;20047;-85
2023/07/30 04:52:15;;;;;;;7.00;1.33;;;16.00;99.90;;;;;;5111718;28;20122;-86
2023/07/30 04:54:41;;;;;;;9.82;2.28;;;16.10;99.90;;;;;;5114734;28;20430;-85
2023/07/30 04:57:06;;;;;;;8.35;1.20;;;16.10;99.90;;;;;;5098532;28;20043;-85
2023/07/30 04:59:35;;;;;;;5.95;2.15;;;16.30;99.90;;;;;;5114746;28;20123;-85
2023/07/30 05:02:01;;;;;;;8.00;1.67;;;16.20;99.90;;;;;;5115082;28;20059;-85
2023/07/30 05:04:26;;;;;;;7.43;1.40;;;16.30;99.90;;;;;;5133662;28;20138;-85
2023/07/30 05:06:52;;;;;;;7.80;1.67;;;16.40;99.90;;;;;;5133840;28;20039;-86
2023/07/30 05:09:18;;;;;;;7.20;1.35;;;16.40;99.90;;;;;;5133525;28;20043;-85
2023/07/30 05:11:43;;;;;;;6.32;1.20;;;16.40;99.90;;;;;;5115586;28;20499;-85
2023/07/30 05:14:09;;;;;;;11.82;1.67;;;16.40;99.90;;;;;;5098596;28;20076;-85
2023/07/30 05:16:36;;;;;;;6.78;1.40;;;16.40;99.90;;;;;;5133391;28;20497;-85
2023/07/30 05:19:02;;;;;;;7.03;1.30;;;16.40;99.90;;;;;;5133174;28;20483;-85
2023/07/30 05:21:28;;;;;;;9.50;1.45;;;16.40;99.90;;;;;;5094498;28;20036;-85
2023/07/30 05:23:53;;;;;;;10.70;1.30;;;16.40;99.90;;;;;;5094771;28;20044;-85
2023/07/30 05:26:19;;;;;;;4.75;1.05;;;16.40;99.90;;;;;;5112085;28;20047;-85
2023/07/30 05:28:45;;;;;;;6.00;1.10;;;16.40;99.90;;;;;;5124752;28;20049;-85
2023/07/30 05:31:10;;;;;;;7.97;1.80;;;16.40;99.90;;;;;;5115017;28;20101;-85
2023/07/30 05:33:36;;;;;;;6.68;1.15;;;16.50;99.90;;;;;;5099016;28;20077;-85
2023/07/30 05:36:02;;;;;;;5.25;0.60;;;16.50;99.90;;;;;;5133664;28;20050;-86
2023/07/30 05:38:27;;;;;;;9.30;1.20;;;16.50;99.90;;;;;;5097844;28;20375;-85
2023/07/30 05:40:53;;;;;;;3.33;1.15;;;16.50;99.90;;;;;;5111405;28;20036;-86
2023/07/30 05:43:19;;;;;;;4.28;0.88;;;16.60;99.90;;;;;;5112986;28;20511;-85
2023/07/30 05:45:45;;;;;;;4.68;0.77;;;16.60;99.90;;;;;;5113178;28;20046;-85
2023/07/30 05:48:10;;;;;;;10.80;1.20;;;16.70;99.90;;;;;;5111976;28;20039;-85
2023/07/30 05:50:36;;;;;;;6.22;0.82;;;16.80;99.90;;;;;;5111880;28;20514;-85
2023/07/30 05:53:02;;;;;;;4.57;0.65;;;16.80;99.90;;;;;;5128234;28;20184;-85
2023/07/30 05:55:27;;;;;;;9.23;1.20;;;16.80;99.90;;;;;;5133967;27;20099;-85
2023/07/30 05:57:53;;;;;;;5.80;1.38;;;16.90;99.90;;;;;;5118106;27;20045;-86
2023/07/30 06:00:19;;;;;;;6.78;1.13;;;16.90;99.90;;;;;;5101389;27;20118;-85
2023/07/30 06:02:45;;;;;;;4.07;0.80;;;17.00;99.90;;;;;;5101585;27;20050;-85
2023/07/30 06:05:11;;;;;;;5.13;1.00;;;17.10;99.90;;;;;;5118203;27;20058;-85
2023/07/30 06:07:36;;;;;;;6.07;0.90;;;17.10;99.90;;;;;;5137138;27;20061;-85
2023/07/30 06:10:02;;;;;;;3.92;0.93;;;17.10;99.90;;;;;;5118772;27;20047;-86
2023/07/30 06:12:28;;;;;;;6.57;0.80;;;17.00;99.90;;;;;;5118552;27;20479;-86
2023/07/30 06:14:54;;;;;;;8.73;1.25;;;17.30;99.90;;;;;;5117233;27;20498;-86
2023/07/30 06:17:19;;;;;;;7.00;0.90;;;17.30;99.90;;;;;;5137011;27;20124;-86
2023/07/30 06:19:45;;;;;;;3.80;0.93;;;17.30;99.90;;;;;;5136043;27;20039;-86
2023/07/30 06:22:11;;;;;;;8.82;0.88;;;17.30;99.90;;;;;;5136469;27;20039;-85
2023/07/30 06:24:36;;;;;;;6.50;0.98;;;17.30;99.90;;;;;;5136422;27;20072;-86
2023/07/30 06:27:12;;;;;;;5.07;0.50;;;17.30;99.90;;;;;;5118051;27;20042;-91
2023/07/30 06:29:47;;;;;;;4.38;0.75;;;17.30;99.90;;;;;;5100919;27;20567;-87
2023/07/30 06:32:22;;;;;;;5.23;0.83;;;17.40;99.90;;;;;;5110322;27;20042;-88
2023/07/30 06:35:11;;;;;;;10.43;1.13;;;17.50;99.90;;;;;;5117566;27;20058;-91
2023/07/30 06:37:54;;;;;;;5.50;0.70;;;17.50;99.90;;;;;;5117927;27;20078;-90
2023/07/30 06:40:27;;;;;;;5.18;0.90;;;17.60;99.90;;;;;;5088744;27;20177;-89
2023/07/30 06:50:12;;;;;;;;;;;;;;;;;;;;;
2023/07/30 06:53:02;;;;;;;4.40;0.85;;;17.70;99.90;;;;;;5136189;27;20079;-91
2023/07/30 06:55:48;;;;;;;;;;;;;;;;;;;;;
2023/07/30 06:58:24;;;;;;;7.38;0.93;;;17.90;99.90;;;;;;5012158;28;20081;-89
2023/07/30 07:00:55;;;;;;;5.32;0.90;;;17.80;99.90;;;;;;4999790;28;20045;-90
2023/07/30 07:03:24;;;;;;;3.80;0.95;;;17.90;99.90;;;;;;5016141;28;20038;-87
2023/07/30 07:05:59;;;;;;;5.32;0.75;;;17.80;99.90;;;;;;5032418;28;20049;-85
2023/07/30 07:08:25;;;;;;;4.53;0.65;;;17.70;99.90;;;;;;5013084;28;20096;-83
2023/07/30 07:10:50;;;;;;;21.33;1.20;;;17.70;99.90;;;;;;5027453;28;20434;-84
2023/07/30 07:13:16;;;;;;;5.90;0.80;;;17.70;99.90;;;;;;5031773;28;20088;-84
2023/07/30 07:15:43;;;;;;;6.78;0.88;;;17.80;99.90;;;;;;5015594;28;20056;-84
2023/07/30 07:18:09;;;;;;;5.75;0.90;;;17.90;99.90;;;;;;4998968;28;20045;-87
2023/07/30 07:20:36;;;;;;;5.53;0.95;;;17.90;99.90;;;;;;4998741;28;20169;-84
2023/07/30 07:23:02;;;;;;;5.82;0.65;;;18.00;99.90;;;;;;5032205;28;20065;-84
2023/07/30 07:25:28;;;;;;;3.38;0.60;;;18.10;99.90;;;;;;5014937;28;20564;-84
2023/07/30 07:27:54;;;;;;;4.38;0.82;;;18.30;99.90;;;;;;5015627;28;20049;-84
2023/07/30 07:30:20;;;;;;;6.90;0.80;;;18.50;99.90;;;;;;5015085;28;20041;-83
2023/07/30 07:32:50;;;;;;;6.82;0.75;;;18.70;99.90;;;;;;5128950;27;20104;-84
2023/07/30 07:35:16;;;;;;;7.82;1.17;;;18.80;99.90;;;;;;5100005;27;20066;-84
2023/07/30 07:37:41;;;;;;;10.73;0.93;;;19.00;99.90;;;;;;5116528;27;20551;-84
2023/07/30 07:40:09;;;;;;;3.53;0.60;;;19.10;99.90;;;;;;5116169;27;20051;-83
2023/07/30 07:42:35;;;;;;;4.13;0.70;;;19.20;99.90;;;;;;5116250;27;20043;-84
2023/07/30 07:45:01;;;;;;;3.10;0.60;;;19.40;99.90;;;;;;5116353;27;20039;-85
2023/07/30 07:47:26;;;;;;;4.20;0.63;;;19.60;99.90;;;;;;5134678;27;20094;-84
2023/07/30 07:49:52;;;;;;;3.67;0.70;;;19.80;99.90;;;;;;5116259;27;20046;-85
2023/07/30 07:52:19;;;;;;;5.03;0.52;;;20.00;99.90;;;;;;5115168;27;20097;-84
2023/07/30 07:54:45;;;;;;;3.35;0.85;;;20.20;99.90;;;;;;5134736;27;20031;-84
2023/07/30 07:57:10;;;;;;;2.42;0.73;;;20.20;99.90;;;;;;5114771;27;20066;-85
2023/07/30 07:59:36;;;;;;;5.55;0.80;;;20.20;99.90;;;;;;5100009;27;20054;-83
2023/07/30 08:02:02;;;;;;;2.28;0.50;;;20.10;99.90;;;;;;5134463;27;20458;-84
2023/07/30 08:04:28;;;;;;;5.32;1.02;;;20.00;99.90;;;;;;5134360;27;20126;-84
2023/07/30 08:06:54;;;;;;;2.50;0.50;;;20.00;99.90;;;;;;5133799;27;20118;-85
2023/07/30 08:09:19;;;;;;;2.75;0.50;;;20.00;99.90;;;;;;5133650;27;20125;-84
2023/07/30 08:11:45;;;;;;;2.60;0.50;;;20.10;99.90;;;;;;5116022;27;20478;-85
2023/07/30 08:14:11;;;;;;;3.80;0.75;;;20.10;99.90;;;;;;5115491;27;20387;-86
2023/07/30 08:16:36;;;;;;;5.22;0.60;;;20.20;99.90;;;;;;5133906;27;20051;-85
2023/07/30 08:19:02;;;;;;;4.70;0.55;;;20.20;99.90;;;;;;5098447;27;20067;-85
2023/07/30 08:21:28;;;;;;;4.65;0.63;;;20.20;99.90;;;;;;5098938;27;20047;-83
2023/07/30 08:23:54;;;;;;;6.45;0.70;;;20.20;99.90;;;;;;5133278;27;20360;-83
2023/07/30 08:26:19;;;;;;;3.40;0.57;;;20.20;99.90;;;;;;5133826;27;20503;-83
2023/07/30 08:28:45;;;;;;;2.88;0.40;;;20.30;99.90;;;;;;5133717;27;20051;-84
2023/07/30 08:31:11;;;;;;;4.10;0.55;;;20.30;99.90;;;;;;5115717;27;20039;-84
2023/07/30 08:33:36;;;;;;;5.15;0.70;;;20.30;99.90;;;;;;5115444;27;20047;-83
2023/07/30 08:36:02;;;;;;;4.45;1.05;;;20.30;99.90;;;;;;5115523;27;20043;-84
2023/07/30 08:38:29;;;;;;;5.43;0.55;;;20.40;99.90;;;;;;5114983;27;20043;-83
2023/07/30 08:40:54;;;;;;;6.30;0.90;;;20.30;99.90;;;;;;5133433;27;20035;-85
2023/07/30 08:43:20;;;;;;;4.80;0.52;;;20.30;99.90;;;;;;5115385;28;20047;-82
2023/07/30 08:45:46;;;;;;;4.47;0.68;;;20.30;99.90;;;;;;5115634;27;20078;-85
2023/07/30 08:48:12;;;;;;;4.35;0.70;;;20.30;99.90;;;;;;5122920;27;20050;-85
2023/07/30 08:50:39;;;;;;;3.72;0.32;;;20.20;99.90;;;;;;5116023;28;20425;-85
2023/07/30 08:53:07;;;;;;;4.50;0.70;;;20.20;99.90;;;;;;5098725;28;20395;-85
2023/07/30 08:55:34;;;;;;;4.40;0.70;;;20.10;99.90;;;;;;5097898;28;20066;-85
2023/07/30 08:58:04;;;;;;;4.25;0.60;;;20.10;99.90;;;;;;5133878;28;20039;-85
2023/07/30 09:00:36;;;;;;;3.13;0.50;;;20.10;99.90;;;;;;5134002;28;20518;-86
2023/07/30 09:03:04;;;;;;;3.42;0.60;;;20.20;99.90;;;;;;5098011;28;20047;-85
2023/07/30 09:05:30;;;;;;;7.07;0.80;;;20.20;99.90;;;;;;5115185;28;20158;-85
2023/07/30 09:07:57;;;;;;;3.17;0.50;;;20.30;99.90;;;;;;5115738;28;20545;-86
2023/07/30 09:10:27;;;;;;;3.83;0.57;;;20.40;99.90;;;;;;5134318;28;20351;-86
2023/07/30 09:12:54;;;;;;;4.75;0.60;;;20.50;99.90;;;;;;5098262;28;20039;-85
2023/07/30 09:15:31;;;;;;;5.80;0.65;;;20.80;99.90;;;;;;5133941;28;20043;-86
2023/07/30 09:17:56;;;;;;;3.03;0.60;;;20.90;99.90;;;;;;5099288;28;20403;-86
2023/07/30 09:20:22;;;;;;;4.35;0.70;;;21.00;99.90;;;;;;5098166;28;20039;-85
2023/07/30 09:22:49;;;;;;;2.38;0.50;;;21.10;99.90;;;;;;5115202;28;20042;-85
2023/07/30 09:25:20;;;;;;;3.50;0.40;;;21.10;99.90;;;;;;5115286;28;20039;-85
2023/07/30 09:27:49;;;;;;;2.45;0.40;;;21.10;99.90;;;;;;5114935;28;20524;-84
2023/07/30 09:33:56;;;;;;;1.23;0.30;;;20.90;99.90;;;;;;5138026;27;20441;-84
2023/07/30 09:36:22;;;;;;;2.97;0.32;;;20.70;99.90;;;;;;5120063;27;20134;-84
2023/07/30 09:38:49;;;;;;;2.40;0.40;;;20.50;99.90;;;;;;5138138;27;20050;-85
2023/07/30 09:41:15;;;;;;;2.17;0.73;;;20.40;99.90;;;;;;5137890;27;20043;-84
2023/07/30 09:43:41;;;;;;;3.22;0.50;;;20.30;99.90;;;;;;5119798;27;20099;-85
2023/07/30 09:46:07;;;;;;;3.05;0.38;;;20.20;99.90;;;;;;5137998;27;20237;-85
2023/07/30 09:48:34;;;;;;;2.08;0.30;;;20.10;99.90;;;;;;5103714;28;20047;-85
2023/07/30 09:51:02;;;;;;;2.85;0.40;;;20.20;99.90;;;;;;5087452;28;20068;-86
2023/07/30 09:53:35;;;;;;;1.95;0.30;;;20.10;99.90;;;;;;5130396;27;20102;-84
2023/07/30 09:56:08;;;;;;;1.63;0.40;;;20.20;99.90;;;;;;5127740;27;20130;-85
2023/07/30 09:58:36;;;;;;;2.25;0.52;;;20.20;99.90;;;;;;5109115;27;20062;-85
2023/07/30 10:01:04;;;;;;;1.27;0.13;;;20.20;99.90;;;;;;5144400;27;20031;-85
2023/07/30 10:03:33;;;;;;;2.50;0.40;;;20.30;99.90;;;;;;5129808;27;20054;-85
2023/07/30 10:06:03;;;;;;;1.48;0.20;;;20.40;99.90;;;;;;5147578;27;20496;-88
2023/07/30 10:08:34;;;;;;;2.17;0.30;;;20.60;99.90;;;;;;5127968;27;20043;-85
2023/07/30 10:11:03;;;;;;;0.98;0.20;;;20.60;99.90;;;;;;5110065;27;20411;-85
2023/07/30 10:13:31;;;;;;;3.92;0.40;;;20.60;99.90;;;;;;5146293;27;20052;-85
2023/07/30 10:15:58;;;;;;;3.38;0.30;;;20.60;99.90;;;;;;5128245;27;20047;-84
2023/07/30 10:18:39;;;;;;;2.15;0.30;;;20.60;99.90;;;;;;5165306;27;20051;-85
2023/07/30 10:21:09;;;;;;;3.35;0.43;;;20.50;99.90;;;;;;5176772;27;20070;-84
2023/07/30 10:23:35;;;;;;;1.65;0.40;;;20.60;99.90;;;;;;5141644;27;20063;-86
2023/07/30 10:26:09;;;;;;;1.67;0.35;;;20.80;99.90;;;;;;5154959;27;20039;-85
2023/07/30 10:28:38;;;;;;;3.30;0.43;;;21.10;99.90;;;;;;5154027;27;20095;-85
2023/07/30 10:31:08;;;;;;;2.25;0.60;;;21.50;99.90;;;;;;5155138;27;20031;-83
2023/07/30 10:33:49;;;;;;;1.30;0.32;;;21.60;99.90;;;;;;5156020;27;20046;-85
2023/07/30 10:36:45;;;;;;;2.25;0.45;;;21.70;99.90;;;;;;5138143;27;20043;-85
2023/07/30 10:39:19;;;;;;;1.10;0.30;;;21.70;99.90;;;;;;5134794;27;20115;-87
2023/07/30 10:41:55;;;;;;;2.88;0.40;;;21.70;99.90;;;;;;5137100;27;20031;-89
2023/07/30 10:44:25;;;;;;;4.03;0.43;;;21.60;99.90;;;;;;5135559;27;20043;-85
2023/07/30 10:46:53;;;;;;;3.10;0.63;;;21.50;99.90;;;;;;5128077;27;20047;-86
2023/07/30 10:49:18;;;;;;;3.33;0.50;;;21.30;99.90;;;;;;5138432;27;20051;-85
2023/07/30 10:51:44;;;;;;;3.58;0.50;;;21.40;99.90;;;;;;5118921;27;20457;-85
2023/07/30 10:54:10;;;;;;;1.83;0.32;;;21.50;99.90;;;;;;5102983;27;20471;-86
2023/07/30 10:56:37;;;;;;;6.45;0.65;;;21.80;99.90;;;;;;5119187;27;20047;-85
2023/07/30 11:03:09;;;;;;;3.97;0.50;;;21.80;99.90;;;;;;5139940;27;20521;-86
2023/07/30 11:05:38;;;;;;;2.05;0.45;;;21.50;99.90;;;;;;5102597;27;20047;-86
2023/07/30 11:08:04;;;;;;;5.88;0.50;;;21.40;99.90;;;;;;5118956;27;20043;-85
2023/07/30 11:10:30;;;;;;;3.03;0.50;;;21.60;99.90;;;;;;5136633;27;20050;-86
2023/07/30 11:12:57;;;;;;;4.05;0.47;;;22.00;99.90;;;;;;5101056;27;20039;-87
2023/07/30 11:15:24;;;;;;;1.20;0.30;;;22.30;99.90;;;;;;5136388;27;20080;-86
2023/07/30 11:17:52;;;;;;;5.05;0.43;;;22.60;99.90;;;;;;5138073;27;20384;-86
2023/07/30 11:20:26;;;;;;;2.90;0.60;;;23.00;99.90;;;;;;5124576;27;20068;-86
2023/07/30 11:22:53;;;;;;;2.90;0.55;;;23.40;99.90;;;;;;5119007;27;20435;-87
2023/07/30 11:25:19;;;;;;;4.25;0.70;;;23.50;99.90;;;;;;5120974;27;20501;-86
2023/07/30 11:27:49;;;;;;;4.03;0.60;;;23.60;99.90;;;;;;5139861;27;20050;-86
2023/07/30 11:30:14;;;;;;;4.63;0.50;;;23.60;99.90;;;;;;5123359;27;20453;-85
2023/07/30 11:32:42;;;;;;;2.92;0.50;;;23.70;99.90;;;;;;5122358;27;20047;-86
2023/07/30 11:35:09;;;;;;;2.15;0.60;;;23.70;99.90;;;;;;5118677;27;20133;-89
2023/07/30 11:37:38;;;;;;;2.53;0.30;;;23.60;99.90;;;;;;5118517;27;20046;-86
2023/07/30 11:40:11;;;;;;;2.45;0.40;;;23.70;99.90;;;;;;5117599;27;20100;-87
2023/07/30 11:42:42;;;;;;;4.90;0.50;;;23.90;99.90;;;;;;5100132;27;20080;-89
2023/07/30 11:48:24;;;;;;;4.75;0.45;;;24.10;99.90;;;;;;5122066;22;20470;-94
2023/07/30 12:03:07;;;;;;;1.63;0.47;;;24.80;99.10;;;;;;6134168;22;20259;-91
2023/07/30 12:12:13;;;;;;;5.47;0.55;;;24.10;98.10;;;;;;5588118;22;20344;-83
2023/07/30 12:14:48;;;;;;;1.45;0.57;;;24.00;98.80;;;;;;4998947;28;20041;-83
2023/07/30 12:17:14;;;;;;;2.67;0.40;;;24.00;99.60;;;;;;5033248;28;20072;-83
2023/07/30 12:19:41;;;;;;;5.32;0.40;;;24.00;99.90;;;;;;5015632;28;20430;-83
2023/07/30 12:22:09;;;;;;;2.80;0.40;;;24.20;99.90;;;;;;5032962;28;20048;-82
2023/07/30 12:24:34;;;;;;;1.52;0.40;;;24.10;99.90;;;;;;5033835;28;20201;-85
2023/07/30 12:27:03;;;;;;;2.25;0.40;;;24.10;99.80;;;;;;5033272;28;20121;-84
2023/07/30 12:29:29;;;;;;;2.25;0.32;;;23.90;99.90;;;;;;5015206;28;20049;-83
2023/07/30 12:31:55;;;;;;;2.63;0.35;;;23.70;99.80;;;;;;4998793;28;20056;-83
2023/07/30 12:34:23;;;;;;;1.35;0.40;;;23.70;99.80;;;;;;5015466;28;20406;-83
2023/07/30 12:36:49;;;;;;;2.42;0.35;;;23.60;99.90;;;;;;4998469;28;20049;-82
2023/07/30 12:39:14;;;;;;;5.03;0.88;;;23.90;99.90;;;;;;5015164;28;20049;-83
2023/07/30 12:41:40;;;;;;;1.85;0.30;;;24.10;99.90;;;;;;5015055;28;20044;-85
2023/07/30 12:44:06;;;;;;;2.78;0.40;;;24.40;99.90;;;;;;5015284;28;20045;-84
2023/07/30 12:46:32;;;;;;;2.60;0.30;;;24.60;99.90;;;;;;5014635;28;20037;-83
2023/07/30 12:49:03;;;;;;;1.05;0.30;;;24.60;99.90;;;;;;5015117;28;20092;-83
2023/07/30 12:51:30;;;;;;;1.63;0.40;;;24.90;99.90;;;;;;5032961;28;20049;-83
2023/07/30 12:53:55;;;;;;;3.13;0.40;;;25.20;99.90;;;;;;5032680;28;20124;-83
2023/07/30 12:56:21;;;;;;;6.35;0.65;;;24.90;99.90;;;;;;5014606;28;20132;-83
2023/07/30 12:58:47;;;;;;;3.28;0.40;;;24.90;99.90;;;;;;5015276;28;20047;-83
2023/07/30 13:01:13;;;;;;;4.40;0.32;;;24.90;99.90;;;;;;5015173;28;20049;-83
2023/07/30 13:03:39;;;;;;;2.97;0.40;;;24.90;98.50;;;;;;5032771;28;20115;-83
2023/07/30 13:06:04;;;;;;;1.95;0.25;;;24.90;97.70;;;;;;5036433;28;20046;-83
2023/07/30 13:08:30;;;;;;;3.72;0.32;;;24.90;98.20;;;;;;5037204;28;20159;-84
2023/07/30 13:10:56;;;;;;;2.85;0.52;;;25.10;97.80;;;;;;5036589;28;20048;-84
2023/07/30 13:13:23;;;;;;;1.20;0.30;;;25.00;98.10;;;;;;5018209;28;20141;-84
2023/07/30 13:15:49;;;;;;;0.75;0.10;;;25.20;97.70;;;;;;5003257;28;20393;-82
2023/07/30 13:18:15;;;;;;;3.78;0.40;;;25.30;97.00;;;;;;5037128;28;20033;-83
2023/07/30 13:20:40;;;;;;;2.63;0.25;;;25.50;96.40;;;;;;5036612;28;20045;-85
2023/07/30 13:23:06;;;;;;;2.55;0.40;;;25.60;96.60;;;;;;5037080;28;20397;-83
2023/07/30 13:25:32;;;;;;;0.98;0.20;;;25.70;96.00;;;;;;5037028;28;20053;-83